Time;durP1;ratioP1;P1;durP2;ratioP2;P2;SDS_P1;SDS_P2;PMS_P1;PMS_P2;Temp;Humidity;BMP_temperature;BMP_pressure;BME280_temperature;BME280_humidity;BME280_pressure;Samples;Min_cycle;Max_cycle;Signal;HPM_P1;HPM_P2
2022/08/20 00:01:16;;;;;;;0.80;0.80;;;;;;;22.48;67.25;98505.81;4110270;28;20230;-88
2022/08/20 00:03:29;;;;;;;1.45;0.73;;;;;;;22.43;67.22;98503.19;4112403;28;20772;-86
2022/08/20 00:05:38;;;;;;;0.90;0.90;;;;;;;22.41;67.64;98505.44;4122807;28;20232;-89
2022/08/20 00:07:40;;;;;;;0.75;0.70;;;;;;;22.44;67.30;98493.69;4106879;28;20206;-88
2022/08/20 00:09:51;;;;;;;1.15;0.70;;;;;;;22.45;67.33;98493.34;4107987;28;20222;-90
2022/08/20 00:11:53;;;;;;;0.68;0.60;;;;;;;22.46;67.30;98497.78;4123113;28;20313;-89
2022/08/20 00:14:07;;;;;;;0.60;0.60;;;;;;;22.46;67.25;98491.38;4095018;28;20234;-85
2022/08/20 00:16:13;;;;;;;0.63;0.63;;;;;;;22.42;67.54;98490.34;4097385;28;20213;-86
2022/08/20 00:18:15;;;;;;;2.72;0.90;;;;;;;22.42;67.37;98490.34;4102482;28;20249;-88
2022/08/20 00:20:23;;;;;;;0.77;0.73;;;;;;;22.43;67.40;98500.41;4121745;28;20209;-88
2022/08/20 00:22:26;;;;;;;1.27;0.70;;;;;;;22.18;68.90;98498.38;4106990;28;20868;-89
2022/08/20 00:24:33;;;;;;;1.10;0.70;;;;;;;22.29;67.95;98502.47;4103577;28;20722;-88
2022/08/20 00:26:35;;;;;;;0.70;0.70;;;;;;;22.30;67.93;98492.97;4103252;28;20291;-88
2022/08/20 00:28:42;;;;;;;0.77;0.60;;;;;;;22.33;67.87;98495.09;4095811;28;20941;-87
2022/08/20 00:30:48;;;;;;;0.65;0.65;;;;;;;22.36;67.77;98502.81;4083404;28;20284;-88
2022/08/20 00:32:53;;;;;;;1.33;0.80;;;;;;;22.37;67.51;98499.69;4102657;28;22233;-88
2022/08/20 00:34:54;;;;;;;0.65;0.65;;;;;;;22.43;67.64;98495.63;4098467;28;20217;-88
2022/08/20 00:36:56;;;;;;;0.50;0.50;;;;;;;22.39;67.83;98496.59;4104195;28;20866;-89
2022/08/20 00:39:00;;;;;;;0.68;0.68;;;;;;;22.29;68.57;98508.03;4103697;28;20265;-89
2022/08/20 00:41:03;;;;;;;0.90;0.70;;;;;;;22.26;68.34;98509.56;4096573;28;20217;-87
2022/08/20 00:43:10;;;;;;;0.70;0.70;;;;;;;22.29;68.15;98513.63;4098161;28;20224;-88
2022/08/20 00:45:16;;;;;;;0.75;0.75;;;;;;;22.25;68.19;98502.31;4102250;28;20225;-87
2022/08/20 00:47:19;;;;;;;0.68;0.68;;;;;;;22.38;68.30;98506.13;4119503;28;20311;-88
2022/08/20 00:49:26;;;;;;;0.80;0.77;;;;;;;22.27;68.28;98504.78;4098116;28;20333;-88
2022/08/20 00:51:41;;;;;;;0.65;0.60;;;;;;;22.17;69.13;98507.88;4111119;28;20642;-88
2022/08/20 00:54:03;;;;;;;0.80;0.80;;;;;;;22.27;68.73;98504.78;4116922;28;20741;-87
2022/08/20 00:56:06;;;;;;;0.55;0.55;;;;;;;22.27;68.70;98507.56;4101923;28;20241;-90
2022/08/20 00:58:08;;;;;;;0.80;0.80;;;;;;;22.34;68.36;98510.69;4097803;28;20684;-85
2022/08/20 01:00:41;;;;;;;0.60;0.60;;;;;;;22.13;69.30;98515.25;4113691;28;20256;-85
2022/08/20 01:02:46;;;;;;;1.15;0.88;;;;;;;22.10;69.39;98515.91;4109328;28;20257;-85
2022/08/20 01:04:54;;;;;;;0.80;0.80;;;;;;;22.06;69.54;98526.06;4122606;28;20228;-87
2022/08/20 01:07:01;;;;;;;0.73;0.73;;;;;;;21.99;70.00;98520.97;4103083;28;20229;-89
2022/08/20 01:09:04;;;;;;;0.85;0.85;;;;;;;22.04;69.69;98523.59;4118828;28;20212;-89
2022/08/20 01:11:15;;;;;;;0.60;0.60;;;;;;;21.93;69.82;98510.28;4102749;28;20233;-90
2022/08/20 01:13:20;;;;;;;1.05;0.70;;;;;;;21.94;69.92;98517.50;4116677;28;20323;-87
2022/08/20 01:15:23;;;;;;;0.80;0.80;;;;;;;21.94;69.83;98518.31;4104529;28;20202;-88
2022/08/20 01:17:35;;;;;;;1.00;0.80;;;;;;;21.91;70.38;98512.56;4105317;28;20852;-89
2022/08/20 01:19:43;;;;;;;1.35;1.00;;;;;;;21.96;70.09;98515.19;4091573;28;20448;-84
2022/08/20 01:21:45;;;;;;;0.88;0.85;;;;;;;21.92;70.35;98508.66;4107150;28;20236;-88
2022/08/20 01:24:02;;;;;;;0.98;0.68;;;;;;;21.89;70.26;98509.28;4115069;28;20213;-88
2022/08/20 01:26:21;;;;;;;0.65;0.65;;;;;;;21.90;70.55;98513.72;4117322;28;20205;-87
2022/08/20 01:28:31;;;;;;;1.08;0.95;;;;;;;21.88;70.49;98516.00;4094158;28;20265;-86
2022/08/20 01:30:32;;;;;;;1.50;0.80;;;;;;;21.91;70.62;98518.16;4095559;28;20730;-86
2022/08/20 01:32:34;;;;;;;0.70;0.70;;;;;;;21.78;71.06;98519.88;4099775;28;20273;-87
2022/08/20 01:34:36;;;;;;;1.00;1.00;;;;;;;21.69;71.39;98529.34;4098372;28;20206;-87
2022/08/20 01:36:47;;;;;;;2.38;1.00;;;;;;;21.73;71.12;98522.00;4104768;28;20675;-89
2022/08/20 01:38:48;;;;;;;0.77;0.73;;;;;;;21.74;71.22;98530.06;4104247;28;20757;-86
2022/08/20 01:41:13;;;;;;;0.90;0.90;;;;;;;21.76;70.95;98535.28;4093777;28;20229;-88
2022/08/20 01:43:15;;;;;;;1.23;0.90;;;;;;;21.79;71.11;98523.50;4099221;28;20214;-90
2022/08/20 01:45:18;;;;;;;1.08;0.80;;;;;;;21.72;71.41;98528.72;4098731;28;20230;-88
2022/08/20 01:47:27;;;;;;;1.45;0.80;;;;;;;21.63;71.68;98534.22;4102391;28;20257;-88
2022/08/20 01:49:34;;;;;;;1.13;1.00;;;;;;;21.58;72.15;98536.34;4103522;28;20252;-88
2022/08/20 01:51:35;;;;;;;1.17;0.80;;;;;;;21.61;71.89;98547.66;4112940;28;20300;-88
2022/08/20 01:53:41;;;;;;;2.85;0.93;;;;;;;21.72;71.42;98545.44;4087938;28;20207;-88
2022/08/20 01:55:42;;;;;;;2.70;1.13;;;;;;;21.63;72.09;98541.78;4118021;28;20288;-88
2022/08/20 01:57:48;;;;;;;1.20;1.15;;;;;;;21.67;71.89;98545.59;4088105;28;20223;-88
2022/08/20 01:59:49;;;;;;;1.08;0.80;;;;;;;21.76;71.42;98540.84;4113931;28;20205;-88
2022/08/20 02:01:51;;;;;;;1.00;0.90;;;;;;;21.67;72.08;98540.00;4117041;28;20225;-87
2022/08/20 02:03:54;;;;;;;1.80;1.02;;;;;;;21.59;72.34;98527.66;4104378;28;20198;-85
2022/08/20 02:05:59;;;;;;;1.05;0.93;;;;;;;21.67;72.05;98532.50;4106889;28;20278;-86
2022/08/20 02:08:01;;;;;;;0.98;0.93;;;;;;;21.48;72.56;98531.03;4119920;28;20198;-85
2022/08/20 02:10:12;;;;;;;1.33;0.95;;;;;;;21.53;72.57;98536.47;4110465;28;20269;-86
2022/08/20 02:12:14;;;;;;;2.05;1.00;;;;;;;21.60;72.18;98534.06;4124932;28;20262;-84
2022/08/20 02:14:15;;;;;;;3.63;0.98;;;;;;;21.49;72.38;98538.25;4126522;28;20210;-86
2022/08/20 02:16:20;;;;;;;1.63;0.90;;;;;;;21.49;72.68;98529.88;4130076;28;20336;-86
2022/08/20 02:18:22;;;;;;;1.27;1.27;;;;;;;21.46;72.97;98530.53;4094727;28;20229;-90
2022/08/20 02:20:27;;;;;;;1.58;0.90;;;;;;;21.47;72.72;98529.41;4092913;28;20230;-88
2022/08/20 02:22:42;;;;;;;1.67;1.30;;;;;;;21.49;72.62;98539.09;4107889;28;20206;-86
2022/08/20 02:24:51;;;;;;;2.17;1.33;;;;;;;21.58;72.49;98547.50;4107452;28;20620;-87
2022/08/20 02:26:53;;;;;;;3.83;1.10;;;;;;;21.55;72.36;98548.09;4106052;28;20231;-88
2022/08/20 02:28:56;;;;;;;1.20;1.10;;;;;;;21.70;72.58;98550.53;4091588;28;20306;-88
2022/08/20 02:31:05;;;;;;;1.13;1.00;;;;;;;21.47;73.18;98552.50;4118158;28;20221;-89
2022/08/20 02:33:09;;;;;;;1.10;0.82;;;;;;;21.51;73.04;98555.47;4108278;28;20201;-87
2022/08/20 02:35:12;;;;;;;1.45;1.08;;;;;;;21.47;73.32;98560.03;4105078;28;20655;-89
2022/08/20 02:37:17;;;;;;;1.52;0.95;;;;;;;21.36;73.56;98553.06;4096589;28;20214;-87
2022/08/20 02:39:19;;;;;;;1.63;1.02;;;;;;;21.45;73.23;98549.22;4090198;28;20703;-87
2022/08/20 02:41:20;;;;;;;1.30;1.20;;;;;;;21.49;73.14;98550.22;4105720;28;20218;-85
2022/08/20 02:43:22;;;;;;;1.52;1.00;;;;;;;21.52;73.02;98543.19;4105960;28;20210;-89
2022/08/20 02:45:24;;;;;;;1.33;1.10;;;;;;;21.48;72.85;98548.59;4118102;28;20284;-85
2022/08/20 02:47:26;;;;;;;1.10;1.00;;;;;;;21.49;72.85;98554.97;4084276;28;20209;-89
2022/08/20 02:49:28;;;;;;;1.40;1.20;;;;;;;21.51;73.19;98549.91;4101012;28;20210;-88
2022/08/20 02:51:30;;;;;;;1.30;1.20;;;;;;;21.52;73.16;98557.13;4103168;28;20226;-89
2022/08/20 02:53:34;;;;;;;1.17;1.10;;;;;;;21.51;73.24;98553.50;4116680;28;20212;-85
2022/08/20 02:55:39;;;;;;;1.35;1.20;;;;;;;21.48;73.36;98548.59;4116847;28;20373;-87
2022/08/20 02:57:41;;;;;;;1.73;1.20;;;;;;;21.37;73.88;98546.41;4083683;28;21666;-87
2022/08/20 02:59:44;;;;;;;2.20;1.30;;;;;;;21.47;73.53;98546.09;4101840;28;20332;-88
2022/08/20 03:01:47;;;;;;;3.88;1.20;;;;;;;21.50;73.51;98545.50;4109821;28;20257;-87
2022/08/20 03:04:01;;;;;;;1.58;1.48;;;;;;;21.46;73.75;98550.03;4102634;28;20300;-89
2022/08/20 03:06:03;;;;;;;1.33;0.90;;;;;;;21.42;73.91;98549.03;4107204;28;20280;-85
2022/08/20 03:08:07;;;;;;;1.17;1.08;;;;;;;21.37;73.86;98546.41;4107876;28;20206;-86
2022/08/20 03:10:13;;;;;;;2.85;1.40;;;;;;;21.41;73.67;98552.94;4107116;28;20203;-89
2022/08/20 03:12:16;;;;;;;1.77;1.17;;;;;;;21.36;73.74;98545.56;4098358;28;20280;-86
2022/08/20 03:14:18;;;;;;;1.40;1.30;;;;;;;21.46;73.78;98547.25;4120676;28;20240;-86
2022/08/20 03:16:22;;;;;;;1.38;1.27;;;;;;;21.39;73.88;98546.88;4104892;28;20285;-87
2022/08/20 03:18:28;;;;;;;1.58;1.10;;;;;;;21.33;74.48;98545.38;4104879;28;20206;-88
2022/08/20 03:20:30;;;;;;;1.15;1.05;;;;;;;21.30;74.55;98551.59;4097908;28;20261;-87
2022/08/20 03:22:34;;;;;;;1.95;1.52;;;;;;;21.26;74.42;98545.00;4105639;28;20874;-87
2022/08/20 03:24:35;;;;;;;1.80;1.40;;;;;;;21.24;74.54;98553.66;4100438;28;20214;-90
2022/08/20 03:26:37;;;;;;;1.33;1.23;;;;;;;21.19;74.77;98545.44;4103047;28;20257;-88
2022/08/20 03:28:39;;;;;;;1.30;1.20;;;;;;;21.23;74.77;98549.25;4102804;28;20666;-88
2022/08/20 03:30:41;;;;;;;1.35;1.27;;;;;;;21.23;74.42;98554.00;4114901;28;20328;-87
2022/08/20 03:32:44;;;;;;;1.27;1.20;;;;;;;21.21;74.56;98547.91;4096884;28;20207;-86
2022/08/20 03:34:45;;;;;;;1.40;1.30;;;;;;;21.07;75.26;98553.56;4100954;28;20210;-89
2022/08/20 03:36:47;;;;;;;2.80;1.30;;;;;;;21.13;74.70;98554.25;4119334;28;20649;-84
2022/08/20 03:38:49;;;;;;;1.92;1.20;;;;;;;21.22;74.54;98544.00;4104597;28;20214;-88
2022/08/20 03:40:50;;;;;;;1.48;1.23;;;;;;;21.06;75.66;98551.09;4104319;28;20273;-86
2022/08/20 03:42:52;;;;;;;1.40;1.30;;;;;;;21.07;75.53;98547.16;4100465;28;20599;-88
2022/08/20 03:44:54;;;;;;;1.10;1.00;;;;;;;21.08;75.47;98557.16;4084581;28;20230;-88
2022/08/20 03:47:02;;;;;;;4.07;1.10;;;;;;;21.10;75.10;98552.13;4103218;28;20229;-88
2022/08/20 03:49:07;;;;;;;1.40;1.25;;;;;;;21.02;75.50;98555.66;4107210;28;20206;-86
2022/08/20 03:51:08;;;;;;;1.98;1.50;;;;;;;21.07;75.36;98542.44;4100271;28;20238;-91
2022/08/20 03:53:12;;;;;;;1.20;1.10;;;;;;;21.02;75.48;98550.06;4098082;28;20222;-85
2022/08/20 03:55:15;;;;;;;1.45;1.27;;;;;;;21.06;75.55;98551.09;4113228;28;20211;-85
2022/08/20 03:57:17;;;;;;;3.00;1.20;;;;;;;21.10;75.02;98558.50;4095270;28;20211;-88
2022/08/20 03:59:18;;;;;;;1.50;1.10;;;;;;;21.19;74.86;98550.22;4086055;28;20242;-87
2022/08/20 04:01:20;;;;;;;1.33;1.10;;;;;;;21.20;75.11;98551.84;4109189;28;20743;-84
2022/08/20 04:03:42;;;;;;;1.33;1.23;;;;;;;21.11;74.96;98553.75;4090941;28;20217;-86
2022/08/20 04:05:44;;;;;;;1.50;1.05;;;;;;;21.10;75.06;98558.50;4100741;28;20714;-87
2022/08/20 04:07:46;;;;;;;1.45;1.35;;;;;;;21.06;75.33;98557.50;4104748;28;20234;-86
2022/08/20 04:09:48;;;;;;;1.35;1.25;;;;;;;21.01;75.84;98559.56;4107026;28;20217;-89
2022/08/20 04:11:49;;;;;;;1.85;1.40;;;;;;;20.78;76.88;98555.91;4105072;28;20738;-89
2022/08/20 04:13:51;;;;;;;1.50;1.40;;;;;;;20.75;77.00;98558.50;4107252;28;20333;-87
2022/08/20 04:15:56;;;;;;;1.75;1.25;;;;;;;20.86;76.45;98559.91;4105047;28;20289;-88
2022/08/20 04:17:58;;;;;;;1.35;1.17;;;;;;;20.88;76.10;98561.28;4104921;28;20210;-87
2022/08/20 04:20:02;;;;;;;1.27;1.17;;;;;;;21.05;75.70;98561.41;4104239;28;20201;-88
2022/08/20 04:22:06;;;;;;;2.42;1.50;;;;;;;21.03;75.90;98562.84;4098116;28;20218;-88
2022/08/20 04:24:08;;;;;;;1.40;1.30;;;;;;;20.93;76.16;98563.94;4099491;28;20269;-85
2022/08/20 04:26:35;;;;;;;1.50;1.35;;;;;;;21.00;76.10;98569.91;4093234;28;20245;-88
2022/08/20 04:28:37;;;;;;;1.40;1.30;;;;;;;21.01;75.96;98565.13;4103969;28;20206;-84
2022/08/20 04:30:38;;;;;;;1.50;1.40;;;;;;;20.84;76.65;98567.78;4118861;28;20238;-87
2022/08/20 04:32:45;;;;;;;1.95;1.20;;;;;;;20.83;76.86;98568.88;4121819;28;21477;-84
2022/08/20 04:34:48;;;;;;;1.77;1.67;;;;;;;20.89;76.32;98581.56;4105934;28;20329;-86
2022/08/20 04:36:50;;;;;;;0.80;0.80;;;;;;;20.91;76.30;98577.34;4101078;28;20233;-88
2022/08/20 04:38:51;;;;;;;1.30;1.20;;;;;;;20.96;76.11;98584.72;4091951;28;20339;-88
2022/08/20 04:40:56;;;;;;;1.35;1.20;;;;;;;20.88;76.65;98582.72;4115986;28;20233;-87
2022/08/20 04:42:58;;;;;;;1.20;1.10;;;;;;;20.87;76.48;98586.59;4120265;28;20213;-89
2022/08/20 04:45:00;;;;;;;1.20;1.10;;;;;;;20.83;77.06;98585.56;4113425;28;20297;-89
2022/08/20 04:47:01;;;;;;;2.50;1.23;;;;;;;20.95;76.58;98588.66;4103107;28;21134;-87
2022/08/20 04:49:11;;;;;;;1.30;1.20;;;;;;;20.83;76.94;98583.63;4107276;28;20273;-86
2022/08/20 04:51:13;;;;;;;1.40;1.30;;;;;;;20.88;76.93;98588.28;4111360;28;20257;-87
2022/08/20 04:53:17;;;;;;;1.45;1.00;;;;;;;20.69;77.51;98584.81;4120595;28;20225;-87
2022/08/20 04:55:26;;;;;;;1.95;1.42;;;;;;;20.68;77.84;98583.16;4119627;28;20215;-86
2022/08/20 04:57:27;;;;;;;1.48;1.05;;;;;;;20.64;78.05;98587.72;4079511;28;20276;-86
2022/08/20 04:59:29;;;;;;;1.92;1.40;;;;;;;20.47;78.77;98581.97;4106798;28;20215;-88
2022/08/20 05:01:31;;;;;;;1.52;1.38;;;;;;;20.56;78.59;98585.66;4102549;28;20227;-85
2022/08/20 05:03:37;;;;;;;1.02;0.93;;;;;;;20.61;78.35;98583.59;4102437;28;20700;-88
2022/08/20 05:05:38;;;;;;;1.30;1.20;;;;;;;20.63;78.09;98586.06;4098220;28;20214;-88
2022/08/20 05:07:46;;;;;;;1.23;1.13;;;;;;;20.67;78.00;98592.63;4115863;28;20233;-87
2022/08/20 05:09:48;;;;;;;1.40;1.30;;;;;;;20.72;77.87;98593.34;4095711;28;20206;-86
2022/08/20 05:11:50;;;;;;;1.48;1.10;;;;;;;20.77;77.94;98592.41;4114691;28;20234;-86
2022/08/20 05:13:51;;;;;;;1.33;1.23;;;;;;;20.73;78.72;98596.94;4083349;28;20294;-86
2022/08/20 05:15:53;;;;;;;3.25;1.38;;;;;;;20.75;78.59;98594.66;4101680;28;20237;-88
2022/08/20 05:17:59;;;;;;;1.45;1.08;;;;;;;20.69;79.70;98591.19;4098126;28;20671;-87
2022/08/20 05:20:00;;;;;;;1.10;1.00;;;;;;;20.68;79.79;98600.69;4115704;28;20678;-86
2022/08/20 05:22:03;;;;;;;1.30;1.20;;;;;;;20.58;80.74;98597.31;4105238;28;20258;-85
2022/08/20 05:24:05;;;;;;;1.52;1.42;;;;;;;20.59;81.07;98598.94;4093902;28;20264;-86
2022/08/20 05:26:09;;;;;;;1.50;1.05;;;;;;;20.51;81.77;98596.91;4097257;28;20349;-86
2022/08/20 05:28:15;;;;;;;1.25;1.15;;;;;;;20.48;82.39;98600.31;4096947;28;20686;-88
2022/08/20 05:30:18;;;;;;;1.88;1.20;;;;;;;20.37;82.85;98598.91;4103673;28;20281;-88
2022/08/20 05:32:21;;;;;;;1.60;1.50;;;;;;;20.43;82.56;98603.19;4098900;28;20209;-87
2022/08/20 05:34:23;;;;;;;2.08;1.48;;;;;;;20.42;82.42;98601.53;4096570;28;20267;-84
2022/08/20 05:36:27;;;;;;;1.58;1.30;;;;;;;20.51;82.53;98608.03;4096916;28;20234;-85
2022/08/20 05:38:29;;;;;;;1.45;1.35;;;;;;;20.39;83.18;98603.00;4102653;28;20257;-89
2022/08/20 05:40:34;;;;;;;1.98;1.40;;;;;;;20.35;83.57;98609.50;4105422;28;20318;-86
2022/08/20 05:42:36;;;;;;;1.27;1.17;;;;;;;20.25;84.44;98609.72;4112982;28;20214;-89
2022/08/20 05:44:39;;;;;;;1.35;1.20;;;;;;;20.25;84.73;98610.53;4121138;28;20207;-88
2022/08/20 05:46:43;;;;;;;1.00;1.00;;;;;;;20.24;84.97;98613.63;4107476;28;20321;-87
2022/08/20 05:48:44;;;;;;;1.58;1.48;;;;;;;20.04;86.36;98617.59;4109119;28;20214;-88
2022/08/20 05:50:48;;;;;;;1.98;1.48;;;;;;;20.12;86.31;98613.34;4115074;28;20247;-88
2022/08/20 05:52:50;;;;;;;1.23;1.13;;;;;;;20.15;85.47;98619.09;4098700;28;20211;-86
2022/08/20 05:54:59;;;;;;;1.42;1.23;;;;;;;20.28;85.63;98614.66;4106159;28;20261;-84
2022/08/20 05:57:01;;;;;;;1.08;0.98;;;;;;;20.24;85.73;98617.22;4110763;28;20194;-85
2022/08/20 05:59:09;;;;;;;3.28;1.40;;;;;;;20.24;85.97;98621.97;4121583;28;20229;-86
2022/08/20 06:01:11;;;;;;;1.33;1.23;;;;;;;20.25;85.55;98624.44;4105429;28;21004;-88
2022/08/20 06:05:40;;;;;;;1.95;1.52;;;;;;;20.27;85.74;98627.75;4126697;28;20221;-88
2022/08/20 06:07:42;;;;;;;1.40;1.30;;;;;;;20.32;85.26;98630.38;4132938;28;20288;-86
2022/08/20 06:09:44;;;;;;;1.73;1.20;;;;;;;20.39;85.22;98630.78;4128013;28;20241;-88
2022/08/20 06:11:48;;;;;;;2.97;1.65;;;;;;;20.35;85.51;98628.94;4127805;28;20253;-88
2022/08/20 06:13:50;;;;;;;1.88;1.30;;;;;;;20.07;87.07;98630.09;4128917;28;20218;-87
2022/08/20 06:16:01;;;;;;;1.20;1.10;;;;;;;20.10;86.65;98623.94;4120378;28;20202;-89
2022/08/20 06:18:10;;;;;;;1.35;1.25;;;;;;;20.23;86.19;98625.84;4110892;28;20711;-88
2022/08/20 06:20:28;;;;;;;1.33;1.20;;;;;;;20.33;85.75;98631.22;4128546;28;20564;-88
2022/08/20 06:22:37;;;;;;;1.35;1.10;;;;;;;20.36;85.98;98636.16;4127659;28;20305;-87
2022/08/20 06:24:39;;;;;;;1.73;1.20;;;;;;;20.25;86.22;98635.53;4108564;28;20231;-88
2022/08/20 06:26:40;;;;;;;1.00;1.00;;;;;;;20.19;86.70;98641.53;4114166;28;20775;-87
2022/08/20 06:28:48;;;;;;;2.00;1.90;;;;;;;20.36;85.72;98639.78;4127833;28;20213;-87
2022/08/20 06:30:57;;;;;;;1.10;1.10;;;;;;;20.46;85.67;98647.06;4130306;28;20758;-89
2022/08/20 06:33:07;;;;;;;1.45;1.25;;;;;;;20.36;86.24;98644.50;4122853;28;20214;-88
2022/08/20 06:35:15;;;;;;;1.70;1.45;;;;;;;20.48;85.39;98650.34;4113574;28;20242;-88
2022/08/20 06:37:23;;;;;;;1.88;1.40;;;;;;;20.43;85.85;98648.50;4109764;28;20213;-88
2022/08/20 06:39:32;;;;;;;2.97;1.20;;;;;;;20.56;85.37;98653.22;4118214;28;20207;-89
2022/08/20 06:41:33;;;;;;;0.95;0.95;;;;;;;20.21;87.02;98647.59;4129282;28;20931;-88
2022/08/20 06:43:39;;;;;;;1.67;1.20;;;;;;;20.26;87.15;98647.50;4113024;28;20293;-89
2022/08/20 06:45:42;;;;;;;1.55;1.10;;;;;;;20.35;86.95;98651.19;4112708;28;20234;-88
2022/08/20 06:47:45;;;;;;;1.73;1.20;;;;;;;20.49;85.98;98649.22;4139993;28;20249;-88
2022/08/20 06:49:49;;;;;;;1.30;0.90;;;;;;;20.53;85.80;98653.88;4112297;28;20653;-89
2022/08/20 06:51:51;;;;;;;1.35;1.10;;;;;;;20.75;84.80;98650.31;4142588;28;20249;-87
2022/08/20 06:53:53;;;;;;;1.38;1.27;;;;;;;20.80;84.79;98648.25;4124167;28;20202;-87
2022/08/20 06:55:57;;;;;;;0.95;0.90;;;;;;;20.77;84.80;98648.06;4110116;28;20402;-88
2022/08/20 06:58:04;;;;;;;1.02;1.00;;;;;;;20.75;85.11;98650.31;4111542;28;20218;-87
2022/08/20 07:00:31;;;;;;;2.35;1.30;;;;;;;20.74;84.82;98654.22;4127736;28;20304;-89
2022/08/20 07:02:36;;;;;;;0.95;0.95;;;;;;;20.84;84.14;98654.00;4113795;28;20764;-89
2022/08/20 07:04:37;;;;;;;1.63;0.90;;;;;;;20.84;84.15;98654.81;4113172;28;20214;-88
2022/08/20 07:06:39;;;;;;;0.88;0.88;;;;;;;20.97;83.44;98658.75;4128315;28;20226;-89
2022/08/20 07:08:42;;;;;;;0.70;0.70;;;;;;;21.05;83.91;98658.00;4120003;28;20327;-89
2022/08/20 07:10:44;;;;;;;6.78;2.28;;;;;;;21.10;82.89;98663.47;4114678;28;20233;-90
2022/08/20 07:12:49;;;;;;;1.17;0.90;;;;;;;20.95;83.52;98661.00;4129349;28;20214;-90
2022/08/20 07:14:50;;;;;;;0.93;0.93;;;;;;;20.78;84.29;98655.25;4129105;28;20336;-89
2022/08/20 07:16:54;;;;;;;0.77;0.77;;;;;;;20.88;84.13;98660.63;4132875;28;20210;-88
2022/08/20 07:18:57;;;;;;;2.25;0.90;;;;;;;21.03;83.50;98663.03;4131553;28;20277;-88
2022/08/20 07:20:58;;;;;;;1.45;0.90;;;;;;;21.16;83.14;98662.16;4112082;28;20237;-89
2022/08/20 07:23:03;;;;;;;1.88;0.88;;;;;;;21.29;82.51;98662.13;4129654;28;20692;-89
2022/08/20 07:25:08;;;;;;;0.88;0.88;;;;;;;21.36;82.23;98665.28;4131163;28;20216;-89
2022/08/20 07:27:12;;;;;;;0.85;0.77;;;;;;;21.46;81.71;98678.16;4129755;28;20229;-89
2022/08/20 07:29:14;;;;;;;0.80;0.80;;;;;;;21.27;81.77;98671.94;4142113;28;20209;-92
2022/08/20 07:33:56;;;;;;;0.70;0.70;;;;;;;21.25;81.56;98665.88;4149480;28;20205;-90
2022/08/20 07:36:04;;;;;;;1.05;0.80;;;;;;;21.37;81.50;98664.16;4133529;28;20262;-91
2022/08/20 07:38:12;;;;;;;1.67;0.70;;;;;;;21.46;80.79;98667.84;4129088;28;20281;-88
2022/08/20 07:40:21;;;;;;;0.70;0.70;;;;;;;21.32;81.32;98667.06;4131950;28;20252;-88
2022/08/20 07:42:27;;;;;;;0.80;0.80;;;;;;;21.45;80.70;98670.94;4117152;28;20229;-86
2022/08/20 07:44:29;;;;;;;0.82;0.60;;;;;;;21.40;80.37;98673.84;4130569;28;20629;-88
2022/08/20 07:46:31;;;;;;;1.00;0.70;;;;;;;21.49;79.89;98672.75;4128187;28;20312;-89
2022/08/20 07:48:34;;;;;;;1.30;0.70;;;;;;;21.48;80.34;98670.28;4134415;28;20206;-87
2022/08/20 07:50:36;;;;;;;0.80;0.80;;;;;;;21.57;79.89;98673.97;4148673;28;20205;-90
2022/08/20 07:52:38;;;;;;;0.88;0.70;;;;;;;21.62;79.45;98671.03;4132892;28;20209;-90
2022/08/20 07:54:43;;;;;;;0.65;0.65;;;;;;;21.67;79.00;98677.34;4130005;28;20206;-89
2022/08/20 07:56:45;;;;;;;0.65;0.65;;;;;;;21.65;78.86;98673.22;4133572;28;20181;-89
2022/08/20 07:58:57;;;;;;;1.50;0.65;;;;;;;21.65;78.84;98664.84;4130746;28;20194;-89
2022/08/20 08:01:04;;;;;;;0.90;0.73;;;;;;;21.70;77.80;98673.13;4147827;28;20233;-90
2022/08/20 08:03:08;;;;;;;0.60;0.50;;;;;;;21.83;77.41;98663.84;4133627;28;20607;-89
2022/08/20 08:05:11;;;;;;;1.88;0.45;;;;;;;21.71;76.90;98670.00;4114888;28;20971;-90
2022/08/20 08:07:15;;;;;;;0.65;0.57;;;;;;;21.89;76.56;98670.91;4133378;28;20236;-90
2022/08/20 08:09:22;;;;;;;0.60;0.60;;;;;;;21.97;76.44;98678.53;4112927;28;20336;-89
2022/08/20 08:11:42;;;;;;;2.88;0.60;;;;;;;21.97;75.98;98675.72;4124970;28;20230;-88
2022/08/20 08:14:05;;;;;;;0.63;0.63;;;;;;;22.04;74.97;98684.47;4128398;28;20209;-88
2022/08/20 08:16:15;;;;;;;1.92;0.55;;;;;;;21.97;74.34;98689.66;4130880;28;20279;-89
2022/08/20 08:18:23;;;;;;;0.40;0.40;;;;;;;21.97;73.04;98686.88;4118051;28;20205;-89
2022/08/20 08:20:34;;;;;;;2.42;0.40;;;;;;;22.01;72.54;98680.34;4129173;28;20605;-88
2022/08/20 08:22:47;;;;;;;1.00;0.63;;;;;;;22.20;72.06;98685.69;4117693;28;20285;-88
2022/08/20 08:24:49;;;;;;;1.05;0.57;;;;;;;22.36;71.67;98679.34;4130032;28;20237;-88
2022/08/20 08:26:58;;;;;;;0.50;0.50;;;;;;;22.50;71.57;98684.88;4110552;28;20244;-88
2022/08/20 08:28:59;;;;;;;0.90;0.50;;;;;;;22.83;70.89;98674.94;4134890;28;20241;-89
2022/08/20 08:31:01;;;;;;;0.75;0.50;;;;;;;22.85;71.08;98673.44;4121356;28;20225;-88
2022/08/20 08:35:25;;;;;;;0.45;0.45;;;;;;;22.84;72.09;98679.38;4104391;28;20218;-88
2022/08/20 08:37:28;;;;;;;0.68;0.52;;;;;;;22.66;71.87;98663.72;4111429;28;20238;-89
2022/08/20 08:39:35;;;;;;;0.73;0.60;;;;;;;22.35;72.54;98679.66;4108625;28;20261;-87
2022/08/20 08:41:48;;;;;;;0.55;0.55;;;;;;;22.55;72.01;98673.53;4105538;28;20261;-87
2022/08/20 08:44:03;;;;;;;1.67;0.50;;;;;;;22.97;71.03;98678.41;4106990;28;20249;-88
2022/08/20 08:46:09;;;;;;;0.60;0.52;;;;;;;23.27;66.83;98681.09;4103494;28;20222;-87
2022/08/20 08:48:14;;;;;;;0.63;0.50;;;;;;;23.04;66.09;98682.34;4099543;28;22562;-87
2022/08/20 08:50:23;;;;;;;0.47;0.40;;;;;;;23.31;65.51;98678.47;4096942;28;20224;-87
2022/08/20 08:52:45;;;;;;;1.83;0.47;;;;;;;23.62;65.62;98681.88;4108381;28;20232;-87
2022/08/20 08:54:53;;;;;;;0.82;0.50;;;;;;;23.93;64.28;98675.75;4094175;28;20199;-88
2022/08/20 08:56:57;;;;;;;0.40;0.40;;;;;;;23.84;64.39;98688.09;4112751;28;20221;-87
2022/08/20 08:59:03;;;;;;;1.00;0.50;;;;;;;24.18;64.16;98686.06;4112864;28;20210;-86
2022/08/20 09:01:15;;;;;;;0.40;0.40;;;;;;;24.40;63.60;98683.00;4114014;28;20240;-87
2022/08/20 09:03:38;;;;;;;0.40;0.40;;;;;;;24.51;62.53;98681.47;4098667;28;20202;-87
2022/08/20 09:05:58;;;;;;;0.43;0.43;;;;;;;24.44;61.01;98691.56;4095376;28;20211;-89
2022/08/20 09:08:02;;;;;;;117.28;6.28;;;;;;;24.77;59.35;98687.81;4110774;28;20312;-86
2022/08/20 09:10:07;;;;;;;17.13;1.30;;;;;;;25.58;59.32;98685.44;4104224;28;20676;-88
2022/08/20 09:12:12;;;;;;;10.00;0.82;;;;;;;25.49;57.02;98685.50;4111637;28;20234;-86
2022/08/20 09:14:14;;;;;;;0.60;0.43;;;;;;;25.62;57.67;98692.81;4096319;28;20211;-88
2022/08/20 09:16:15;;;;;;;6.13;0.50;;;;;;;25.80;56.48;98688.66;4095053;28;20645;-85
2022/08/20 09:18:17;;;;;;;0.65;0.50;;;;;;;26.10;56.03;98692.19;4110534;28;20201;-87
2022/08/20 09:20:19;;;;;;;0.35;0.35;;;;;;;25.91;56.85;98689.91;4115105;28;20217;-86
2022/08/20 09:22:33;;;;;;;0.82;0.65;;;;;;;26.27;55.39;98675.97;4129831;28;20213;-86
2022/08/20 09:24:40;;;;;;;0.70;0.40;;;;;;;26.00;55.34;98682.22;4115658;28;20205;-88
2022/08/20 09:26:42;;;;;;;1.15;0.50;;;;;;;25.92;56.18;98680.31;4108421;28;20266;-87
2022/08/20 09:28:43;;;;;;;0.30;0.30;;;;;;;25.65;56.01;98680.91;4113164;28;20229;-87
2022/08/20 09:30:59;;;;;;;0.90;0.45;;;;;;;24.90;57.85;98669.94;4121780;28;20652;-86
2022/08/20 09:33:01;;;;;;;0.68;0.40;;;;;;;24.61;58.19;98667.13;4094667;28;20257;-86
2022/08/20 09:35:03;;;;;;;0.50;0.50;;;;;;;24.06;59.40;98666.34;4104578;28;20245;-86
2022/08/20 09:37:10;;;;;;;0.57;0.52;;;;;;;24.29;59.33;98667.78;4124775;28;20255;-87
2022/08/20 09:39:11;;;;;;;0.80;0.70;;;;;;;24.61;58.42;98661.53;4091184;28;20731;-86
2022/08/20 09:41:14;;;;;;;0.80;0.60;;;;;;;25.06;57.90;98662.56;4114984;28;20262;-87
2022/08/20 09:43:16;;;;;;;2.67;0.80;;;;;;;24.96;57.66;98662.97;4125240;28;20240;-87
2022/08/20 09:45:18;;;;;;;0.50;0.50;;;;;;;25.31;57.06;98663.53;4112569;28;20210;-87
2022/08/20 09:47:20;;;;;;;0.45;0.30;;;;;;;26.29;56.03;98659.59;4094143;28;20230;-87
2022/08/20 09:49:22;;;;;;;0.40;0.40;;;;;;;26.28;55.50;98659.94;4094069;28;20210;-86
2022/08/20 09:51:23;;;;;;;0.80;0.80;;;;;;;26.27;55.21;98656.31;4109484;28;20246;-86
2022/08/20 09:53:26;;;;;;;1.33;0.50;;;;;;;26.67;54.15;98660.09;4105946;28;20202;-87
2022/08/20 09:55:38;;;;;;;0.60;0.50;;;;;;;26.86;53.91;98654.72;4092968;28;20294;-88
2022/08/20 09:57:42;;;;;;;0.93;0.70;;;;;;;27.10;53.88;98643.44;4111813;28;20225;-86